sensor_id;sensor_type;location;lat;lon;timestamp;temperature;humidity
54126;DHT22;40360;52.992;6.796;2023-01-23T00:00:21;2.70;99.90
54126;DHT22;40360;52.992;6.796;2023-01-23T00:02:56;2.70;99.90
54126;DHT22;40360;52.992;6.796;2023-01-23T00:05:22;2.70;99.90
54126;DHT22;40360;52.992;6.796;2023-01-23T00:07:50;2.70;99.90
54126;DHT22;40360;52.992;6.796;2023-01-23T00:10:18;2.70;99.90
54126;DHT22;40360;52.992;6.796;2023-01-23T00:12:49;2.70;99.90
54126;DHT22;40360;52.992;6.796;2023-01-23T00:15:23;2.70;99.90
54126;DHT22;40360;52.992;6.796;2023-01-23T00:17:58;2.70;99.90
54126;DHT22;40360;52.992;6.796;2023-01-23T00:20:24;2.70;99.90
54126;DHT22;40360;52.992;6.796;2023-01-23T00:22:59;2.70;99.90
54126;DHT22;40360;52.992;6.796;2023-01-23T00:25:27;2.70;99.90
54126;DHT22;40360;52.992;6.796;2023-01-23T00:28:05;2.70;99.90
54126;DHT22;40360;52.992;6.796;2023-01-23T00:30:32;2.70;99.90
54126;DHT22;40360;52.992;6.796;2023-01-23T00:33:01;2.70;99.90
54126;DHT22;40360;52.992;6.796;2023-01-23T00:35:27;2.80;99.90
54126;DHT22;40360;52.992;6.796;2023-01-23T00:37:55;2.70;99.90
54126;DHT22;40360;52.992;6.796;2023-01-23T00:40:22;2.70;99.90
54126;DHT22;40360;52.992;6.796;2023-01-23T00:42:57;2.70;99.90
54126;DHT22;40360;52.992;6.796;2023-01-23T00:45:25;2.70;99.90
54126;DHT22;40360;52.992;6.796;2023-01-23T00:47:58;2.70;99.90
54126;DHT22;40360;52.992;6.796;2023-01-23T00:50:23;2.70;99.90
54126;DHT22;40360;52.992;6.796;2023-01-23T00:52:49;2.70;99.90
54126;DHT22;40360;52.992;6.796;2023-01-23T00:55:29;2.70;99.90
54126;DHT22;40360;52.992;6.796;2023-01-23T00:57:58;2.70;99.90
54126;DHT22;40360;52.992;6.796;2023-01-23T01:00:28;2.70;99.90
54126;DHT22;40360;52.992;6.796;2023-01-23T01:02:58;2.70;99.90
54126;DHT22;40360;52.992;6.796;2023-01-23T01:06:00;2.70;99.90
54126;DHT22;40360;52.992;6.796;2023-01-23T01:08:30;2.70;99.90
54126;DHT22;40360;52.992;6.796;2023-01-23T01:10:57;2.70;99.90
54126;DHT22;40360;52.992;6.796;2023-01-23T01:13:32;2.70;99.90
54126;DHT22;40360;52.992;6.796;2023-01-23T01:15:59;2.70;99.90
54126;DHT22;40360;52.992;6.796;2023-01-23T01:18:31;2.70;99.90
54126;DHT22;40360;52.992;6.796;2023-01-23T01:21:04;2.70;99.90
54126;DHT22;40360;52.992;6.796;2023-01-23T01:23:35;2.70;99.90
54126;DHT22;40360;52.992;6.796;2023-01-23T01:26:05;2.70;99.90
54126;DHT22;40360;52.992;6.796;2023-01-23T01:28:47;2.70;99.90
54126;DHT22;40360;52.992;6.796;2023-01-23T01:31:15;2.70;99.90
54126;DHT22;40360;52.992;6.796;2023-01-23T01:33:43;2.70;99.90
54126;DHT22;40360;52.992;6.796;2023-01-23T01:36:25;2.70;99.90
54126;DHT22;40360;52.992;6.796;2023-01-23T01:39:01;2.70;99.90
54126;DHT22;40360;52.992;6.796;2023-01-23T01:41:33;2.70;99.90
54126;DHT22;40360;52.992;6.796;2023-01-23T01:44:01;2.70;99.90
54126;DHT22;40360;52.992;6.796;2023-01-23T01:46:28;2.70;99.90
54126;DHT22;40360;52.992;6.796;2023-01-23T01:51:50;2.60;99.90
54126;DHT22;40360;52.992;6.796;2023-01-23T01:54:33;2.70;99.90
54126;DHT22;40360;52.992;6.796;2023-01-23T01:57:27;2.70;99.90
54126;DHT22;40360;52.992;6.796;2023-01-23T02:00:35;2.70;99.90
54126;DHT22;40360;52.992;6.796;2023-01-23T02:03:14;2.70;99.90
54126;DHT22;40360;52.992;6.796;2023-01-23T02:05:50;2.70;99.90
54126;DHT22;40360;52.992;6.796;2023-01-23T02:11:04;2.70;99.90
54126;DHT22;40360;52.992;6.796;2023-01-23T02:13:41;2.70;99.90
54126;DHT22;40360;52.992;6.796;2023-01-23T02:16:19;2.60;99.90
54126;DHT22;40360;52.992;6.796;2023-01-23T02:18:50;2.70;99.90
54126;DHT22;40360;52.992;6.796;2023-01-23T02:21:25;2.70;99.90
54126;DHT22;40360;52.992;6.796;2023-01-23T02:24:11;2.60;99.90
54126;DHT22;40360;52.992;6.796;2023-01-23T02:26:43;2.70;99.90
54126;DHT22;40360;52.992;6.796;2023-01-23T02:29:17;2.70;99.90
54126;DHT22;40360;52.992;6.796;2023-01-23T02:31:45;2.60;99.90
54126;DHT22;40360;52.992;6.796;2023-01-23T02:34:13;2.60;99.90
54126;DHT22;40360;52.992;6.796;2023-01-23T02:36:46;2.70;99.90
54126;DHT22;40360;52.992;6.796;2023-01-23T02:39:22;2.60;99.90
54126;DHT22;40360;52.992;6.796;2023-01-23T02:41:55;2.60;99.90
54126;DHT22;40360;52.992;6.796;2023-01-23T02:44:26;2.70;99.90
54126;DHT22;40360;52.992;6.796;2023-01-23T02:47:17;2.60;99.90
54126;DHT22;40360;52.992;6.796;2023-01-23T02:50:16;2.60;99.90
54126;DHT22;40360;52.992;6.796;2023-01-23T02:52:44;2.60;99.90
54126;DHT22;40360;52.992;6.796;2023-01-23T02:55:11;2.60;99.90
54126;DHT22;40360;52.992;6.796;2023-01-23T02:57:37;2.60;99.90
54126;DHT22;40360;52.992;6.796;2023-01-23T03:00:03;2.60;99.90
54126;DHT22;40360;52.992;6.796;2023-01-23T03:02:45;2.60;99.90
54126;DHT22;40360;52.992;6.796;2023-01-23T03:05:17;2.60;99.90
54126;DHT22;40360;52.992;6.796;2023-01-23T03:07:45;2.60;99.90
54126;DHT22;40360;52.992;6.796;2023-01-23T03:10:13;2.60;99.90
54126;DHT22;40360;52.992;6.796;2023-01-23T03:12:55;2.60;99.90
54126;DHT22;40360;52.992;6.796;2023-01-23T03:15:43;2.50;99.90
54126;DHT22;40360;52.992;6.796;2023-01-23T03:18:16;2.50;99.90
54126;DHT22;40360;52.992;6.796;2023-01-23T03:20:44;2.50;99.90
54126;DHT22;40360;52.992;6.796;2023-01-23T03:23:23;2.50;99.90
54126;DHT22;40360;52.992;6.796;2023-01-23T03:25:49;2.50;99.90
54126;DHT22;40360;52.992;6.796;2023-01-23T03:31:30;2.50;99.90
54126;DHT22;40360;52.992;6.796;2023-01-23T03:34:03;2.50;99.90
54126;DHT22;40360;52.992;6.796;2023-01-23T03:36:34;2.50;99.90
54126;DHT22;40360;52.992;6.796;2023-01-23T03:39:07;2.50;99.90
54126;DHT22;40360;52.992;6.796;2023-01-23T03:41:54;2.50;99.90
54126;DHT22;40360;52.992;6.796;2023-01-23T03:44:24;2.50;99.90
54126;DHT22;40360;52.992;6.796;2023-01-23T03:46:51;2.50;99.90
54126;DHT22;40360;52.992;6.796;2023-01-23T03:49:20;2.50;99.90
54126;DHT22;40360;52.992;6.796;2023-01-23T03:51:49;2.50;99.90
54126;DHT22;40360;52.992;6.796;2023-01-23T03:54:15;2.50;99.90
54126;DHT22;40360;52.992;6.796;2023-01-23T03:56:41;2.50;99.90
54126;DHT22;40360;52.992;6.796;2023-01-23T03:59:08;2.50;99.90
54126;DHT22;40360;52.992;6.796;2023-01-23T04:01:37;2.50;99.90
54126;DHT22;40360;52.992;6.796;2023-01-23T04:04:04;2.50;99.90
54126;DHT22;40360;52.992;6.796;2023-01-23T04:06:36;2.50;99.90
54126;DHT22;40360;52.992;6.796;2023-01-23T04:09:02;2.50;99.90
54126;DHT22;40360;52.992;6.796;2023-01-23T04:11:28;2.50;99.90
54126;DHT22;40360;52.992;6.796;2023-01-23T04:14:01;2.50;99.90
54126;DHT22;40360;52.992;6.796;2023-01-23T04:16:27;2.60;99.90
54126;DHT22;40360;52.992;6.796;2023-01-23T04:19:01;2.50;99.90
54126;DHT22;40360;52.992;6.796;2023-01-23T04:21:28;2.50;99.90
54126;DHT22;40360;52.992;6.796;2023-01-23T04:23:53;2.90;99.90
54126;DHT22;40360;52.992;6.796;2023-01-23T04:26:26;2.50;99.90
54126;DHT22;40360;52.992;6.796;2023-01-23T04:29:26;2.50;99.90
54126;DHT22;40360;52.992;6.796;2023-01-23T04:31:54;2.60;99.90
54126;DHT22;40360;52.992;6.796;2023-01-23T04:34:20;2.60;99.90
54126;DHT22;40360;52.992;6.796;2023-01-23T04:36:47;2.60;99.90
54126;DHT22;40360;52.992;6.796;2023-01-23T04:39:13;2.50;99.90
54126;DHT22;40360;52.992;6.796;2023-01-23T04:41:59;2.60;99.90
54126;DHT22;40360;52.992;6.796;2023-01-23T04:44:27;2.60;99.90
54126;DHT22;40360;52.992;6.796;2023-01-23T04:46:57;2.60;99.90
54126;DHT22;40360;52.992;6.796;2023-01-23T04:49:31;2.50;99.90
54126;DHT22;40360;52.992;6.796;2023-01-23T04:51:58;2.50;99.90
54126;DHT22;40360;52.992;6.796;2023-01-23T04:54:27;2.60;99.90
54126;DHT22;40360;52.992;6.796;2023-01-23T04:56:53;2.50;99.90
54126;DHT22;40360;52.992;6.796;2023-01-23T04:59:22;2.60;99.90
54126;DHT22;40360;52.992;6.796;2023-01-23T05:01:52;2.60;99.90
54126;DHT22;40360;52.992;6.796;2023-01-23T05:21:12;2.50;99.90
54126;DHT22;40360;52.992;6.796;2023-01-23T05:23:38;2.50;99.90
54126;DHT22;40360;52.992;6.796;2023-01-23T05:26:04;2.50;99.90
54126;DHT22;40360;52.992;6.796;2023-01-23T05:28:29;2.50;99.90
54126;DHT22;40360;52.992;6.796;2023-01-23T05:30:55;2.50;99.90
54126;DHT22;40360;52.992;6.796;2023-01-23T05:33:21;2.50;99.90
54126;DHT22;40360;52.992;6.796;2023-01-23T05:35:48;2.50;99.90
54126;DHT22;40360;52.992;6.796;2023-01-23T05:38:14;2.50;99.90
54126;DHT22;40360;52.992;6.796;2023-01-23T05:40:39;2.50;99.90
54126;DHT22;40360;52.992;6.796;2023-01-23T05:43:05;2.50;99.90
54126;DHT22;40360;52.992;6.796;2023-01-23T05:45:31;2.50;99.90
54126;DHT22;40360;52.992;6.796;2023-01-23T05:47:56;2.60;99.90
54126;DHT22;40360;52.992;6.796;2023-01-23T05:50:22;2.60;99.90
54126;DHT22;40360;52.992;6.796;2023-01-23T05:52:49;2.50;99.90
54126;DHT22;40360;52.992;6.796;2023-01-23T05:55:14;2.60;99.90
54126;DHT22;40360;52.992;6.796;2023-01-23T05:57:40;2.50;99.90
54126;DHT22;40360;52.992;6.796;2023-01-23T06:00:10;2.50;99.90
54126;DHT22;40360;52.992;6.796;2023-01-23T06:02:36;2.50;99.90
54126;DHT22;40360;52.992;6.796;2023-01-23T06:05:02;2.50;99.90
54126;DHT22;40360;52.992;6.796;2023-01-23T06:07:27;2.50;99.90
54126;DHT22;40360;52.992;6.796;2023-01-23T06:09:53;2.50;99.90
54126;DHT22;40360;52.992;6.796;2023-01-23T06:12:19;2.50;99.90
54126;DHT22;40360;52.992;6.796;2023-01-23T06:14:46;2.50;99.90
54126;DHT22;40360;52.992;6.796;2023-01-23T06:17:11;2.50;99.90
54126;DHT22;40360;52.992;6.796;2023-01-23T06:19:37;2.60;99.90
54126;DHT22;40360;52.992;6.796;2023-01-23T06:22:03;2.50;99.90
54126;DHT22;40360;52.992;6.796;2023-01-23T06:24:28;2.50;99.90
54126;DHT22;40360;52.992;6.796;2023-01-23T06:26:54;2.50;99.90
54126;DHT22;40360;52.992;6.796;2023-01-23T06:29:20;2.50;99.90
54126;DHT22;40360;52.992;6.796;2023-01-23T06:31:45;2.40;99.90
54126;DHT22;40360;52.992;6.796;2023-01-23T06:34:12;2.50;99.90
54126;DHT22;40360;52.992;6.796;2023-01-23T06:36:38;2.50;99.90
54126;DHT22;40360;52.992;6.796;2023-01-23T06:39:05;2.50;99.90
54126;DHT22;40360;52.992;6.796;2023-01-23T06:41:31;2.50;99.90
54126;DHT22;40360;52.992;6.796;2023-01-23T06:43:56;2.50;99.90
54126;DHT22;40360;52.992;6.796;2023-01-23T06:46:22;2.60;99.90
54126;DHT22;40360;52.992;6.796;2023-01-23T06:48:48;2.50;99.90
54126;DHT22;40360;52.992;6.796;2023-01-23T06:51:13;2.50;99.90
54126;DHT22;40360;52.992;6.796;2023-01-23T06:53:39;2.50;99.90
54126;DHT22;40360;52.992;6.796;2023-01-23T06:56:06;2.50;99.90
54126;DHT22;40360;52.992;6.796;2023-01-23T06:58:33;2.50;99.90
54126;DHT22;40360;52.992;6.796;2023-01-23T07:01:06;2.50;99.90
54126;DHT22;40360;52.992;6.796;2023-01-23T07:03:33;2.50;99.90
54126;DHT22;40360;52.992;6.796;2023-01-23T07:06:02;2.50;99.90
54126;DHT22;40360;52.992;6.796;2023-01-23T07:08:27;2.50;99.90
54126;DHT22;40360;52.992;6.796;2023-01-23T07:10:53;2.50;99.90
54126;DHT22;40360;52.992;6.796;2023-01-23T07:13:19;2.50;99.90
54126;DHT22;40360;52.992;6.796;2023-01-23T07:15:45;2.50;99.90
54126;DHT22;40360;52.992;6.796;2023-01-23T07:18:11;2.40;99.90
54126;DHT22;40360;52.992;6.796;2023-01-23T07:20:36;2.50;99.90
54126;DHT22;40360;52.992;6.796;2023-01-23T07:23:02;2.50;99.90
54126;DHT22;40360;52.992;6.796;2023-01-23T07:25:28;2.50;99.90
54126;DHT22;40360;52.992;6.796;2023-01-23T07:27:54;2.50;99.90
54126;DHT22;40360;52.992;6.796;2023-01-23T07:30:20;2.50;99.90
54126;DHT22;40360;52.992;6.796;2023-01-23T07:32:46;2.50;99.90
54126;DHT22;40360;52.992;6.796;2023-01-23T07:35:11;2.50;99.90
54126;DHT22;40360;52.992;6.796;2023-01-23T07:37:37;2.40;99.90
54126;DHT22;40360;52.992;6.796;2023-01-23T07:40:03;2.40;99.90
54126;DHT22;40360;52.992;6.796;2023-01-23T07:42:29;2.40;99.90
54126;DHT22;40360;52.992;6.796;2023-01-23T07:44:54;2.40;99.90
54126;DHT22;40360;52.992;6.796;2023-01-23T07:47:20;2.40;99.90
54126;DHT22;40360;52.992;6.796;2023-01-23T07:49:46;2.40;99.90
54126;DHT22;40360;52.992;6.796;2023-01-23T07:52:11;2.40;99.90
54126;DHT22;40360;52.992;6.796;2023-01-23T07:54:37;2.40;99.90
54126;DHT22;40360;52.992;6.796;2023-01-23T07:57:02;2.40;99.90
54126;DHT22;40360;52.992;6.796;2023-01-23T07:59:28;2.40;99.90
54126;DHT22;40360;52.992;6.796;2023-01-23T08:01:54;2.40;99.90
54126;DHT22;40360;52.992;6.796;2023-01-23T08:04:19;2.40;99.90
54126;DHT22;40360;52.992;6.796;2023-01-23T08:06:45;2.40;99.90
54126;DHT22;40360;52.992;6.796;2023-01-23T08:09:10;2.50;99.90
54126;DHT22;40360;52.992;6.796;2023-01-23T08:11:37;2.50;99.90
54126;DHT22;40360;52.992;6.796;2023-01-23T08:14:03;2.50;99.90
54126;DHT22;40360;52.992;6.796;2023-01-23T08:16:28;2.50;99.90
54126;DHT22;40360;52.992;6.796;2023-01-23T08:18:54;2.50;99.90
54126;DHT22;40360;52.992;6.796;2023-01-23T08:21:20;2.50;99.90
54126;DHT22;40360;52.992;6.796;2023-01-23T08:23:45;2.50;99.90
54126;DHT22;40360;52.992;6.796;2023-01-23T08:26:13;2.60;99.90
54126;DHT22;40360;52.992;6.796;2023-01-23T08:28:40;2.50;99.90
54126;DHT22;40360;52.992;6.796;2023-01-23T08:31:08;2.50;99.90
54126;DHT22;40360;52.992;6.796;2023-01-23T08:33:37;2.60;99.90
54126;DHT22;40360;52.992;6.796;2023-01-23T08:36:05;2.60;99.90
54126;DHT22;40360;52.992;6.796;2023-01-23T08:38:30;2.60;99.90
54126;DHT22;40360;52.992;6.796;2023-01-23T08:40:58;2.60;99.90
54126;DHT22;40360;52.992;6.796;2023-01-23T08:43:25;2.60;99.90
54126;DHT22;40360;52.992;6.796;2023-01-23T08:45:52;2.60;99.90
54126;DHT22;40360;52.992;6.796;2023-01-23T08:48:19;2.70;99.90
54126;DHT22;40360;52.992;6.796;2023-01-23T08:50:46;2.70;99.90
54126;DHT22;40360;52.992;6.796;2023-01-23T08:53:12;2.70;99.90
54126;DHT22;40360;52.992;6.796;2023-01-23T08:55:38;2.80;99.90
54126;DHT22;40360;52.992;6.796;2023-01-23T08:58:09;2.80;99.90
54126;DHT22;40360;52.992;6.796;2023-01-23T09:00:37;2.80;99.90
54126;DHT22;40360;52.992;6.796;2023-01-23T09:03:03;2.80;99.90
54126;DHT22;40360;52.992;6.796;2023-01-23T09:05:29;2.90;99.90
54126;DHT22;40360;52.992;6.796;2023-01-23T09:07:56;2.90;99.90
54126;DHT22;40360;52.992;6.796;2023-01-23T09:10:22;2.90;99.90
54126;DHT22;40360;52.992;6.796;2023-01-23T09:12:52;3.00;99.90
54126;DHT22;40360;52.992;6.796;2023-01-23T09:15:18;3.00;99.90
54126;DHT22;40360;52.992;6.796;2023-01-23T09:17:44;3.00;99.90
54126;DHT22;40360;52.992;6.796;2023-01-23T09:20:10;3.00;99.90
54126;DHT22;40360;52.992;6.796;2023-01-23T09:22:36;3.10;99.90
54126;DHT22;40360;52.992;6.796;2023-01-23T09:25:02;3.10;99.90
54126;DHT22;40360;52.992;6.796;2023-01-23T09:27:28;3.10;99.90
54126;DHT22;40360;52.992;6.796;2023-01-23T09:29:54;3.10;99.90
54126;DHT22;40360;52.992;6.796;2023-01-23T09:32:19;3.20;99.90
54126;DHT22;40360;52.992;6.796;2023-01-23T09:34:45;3.20;99.90
54126;DHT22;40360;52.992;6.796;2023-01-23T09:37:16;3.20;99.90
54126;DHT22;40360;52.992;6.796;2023-01-23T09:39:45;3.20;99.90
54126;DHT22;40360;52.992;6.796;2023-01-23T09:42:20;3.20;99.90
54126;DHT22;40360;52.992;6.796;2023-01-23T09:44:51;3.20;99.90
54126;DHT22;40360;52.992;6.796;2023-01-23T09:47:43;3.30;99.90
54126;DHT22;40360;52.992;6.796;2023-01-23T09:50:17;3.30;99.90
54126;DHT22;40360;52.992;6.796;2023-01-23T09:52:48;3.30;99.90
54126;DHT22;40360;52.992;6.796;2023-01-23T09:55:58;3.30;99.90
54126;DHT22;40360;52.992;6.796;2023-01-23T09:58:31;3.30;99.90
54126;DHT22;40360;52.992;6.796;2023-01-23T10:00:59;3.30;99.90
54126;DHT22;40360;52.992;6.796;2023-01-23T10:03:28;3.30;99.90
54126;DHT22;40360;52.992;6.796;2023-01-23T10:11:53;3.30;99.90
54126;DHT22;40360;52.992;6.796;2023-01-23T10:26:03;3.40;99.90
54126;DHT22;40360;52.992;6.796;2023-01-23T10:28:33;3.40;99.90
54126;DHT22;40360;52.992;6.796;2023-01-23T10:31:02;3.40;99.90
54126;DHT22;40360;52.992;6.796;2023-01-23T10:36:37;3.40;99.90
54126;DHT22;40360;52.992;6.796;2023-01-23T10:39:39;3.40;99.90
54126;DHT22;40360;52.992;6.796;2023-01-23T10:41:59;3.50;99.90
54126;DHT22;40360;52.992;6.796;2023-01-23T10:44:25;3.50;99.90
54126;DHT22;40360;52.992;6.796;2023-01-23T10:46:57;3.50;99.90
54126;DHT22;40360;52.992;6.796;2023-01-23T10:49:30;3.50;99.90
54126;DHT22;40360;52.992;6.796;2023-01-23T10:51:57;3.60;99.90
54126;DHT22;40360;52.992;6.796;2023-01-23T10:54:24;3.50;99.90
54126;DHT22;40360;52.992;6.796;2023-01-23T10:59:35;3.50;99.90
54126;DHT22;40360;52.992;6.796;2023-01-23T11:04:44;3.60;99.90
54126;DHT22;40360;52.992;6.796;2023-01-23T11:07:14;3.60;99.90
54126;DHT22;40360;52.992;6.796;2023-01-23T11:12:17;3.60;99.90
54126;DHT22;40360;52.992;6.796;2023-01-23T11:14:44;3.60;99.90
54126;DHT22;40360;52.992;6.796;2023-01-23T11:17:14;3.60;99.90
54126;DHT22;40360;52.992;6.796;2023-01-23T11:19:40;3.60;99.90
54126;DHT22;40360;52.992;6.796;2023-01-23T11:22:25;3.60;99.90
54126;DHT22;40360;52.992;6.796;2023-01-23T11:24:51;3.70;99.90
54126;DHT22;40360;52.992;6.796;2023-01-23T11:27:23;3.70;99.90
54126;DHT22;40360;52.992;6.796;2023-01-23T11:32:41;3.70;99.90
54126;DHT22;40360;52.992;6.796;2023-01-23T11:35:26;3.70;99.90
54126;DHT22;40360;52.992;6.796;2023-01-23T11:37:54;3.70;99.90
54126;DHT22;40360;52.992;6.796;2023-01-23T11:40:21;3.70;99.90
54126;DHT22;40360;52.992;6.796;2023-01-23T11:42:47;3.70;99.90
54126;DHT22;40360;52.992;6.796;2023-01-23T11:45:27;3.70;99.90
54126;DHT22;40360;52.992;6.796;2023-01-23T11:59:23;3.80;99.90
54126;DHT22;40360;52.992;6.796;2023-01-23T12:02:25;3.80;99.90
54126;DHT22;40360;52.992;6.796;2023-01-23T12:10:22;3.80;99.90
54126;DHT22;40360;52.992;6.796;2023-01-23T12:13:13;3.80;99.90
54126;DHT22;40360;52.992;6.796;2023-01-23T12:16:08;3.80;99.90
54126;DHT22;40360;52.992;6.796;2023-01-23T12:18:43;3.60;99.90
54126;DHT22;40360;52.992;6.796;2023-01-23T12:21:33;3.80;99.90
54126;DHT22;40360;52.992;6.796;2023-01-23T12:24:10;3.80;99.90
54126;DHT22;40360;52.992;6.796;2023-01-23T12:26:56;3.80;99.90
54126;DHT22;40360;52.992;6.796;2023-01-23T12:29:35;3.80;99.90
54126;DHT22;40360;52.992;6.796;2023-01-23T12:38:08;3.80;99.90
54126;DHT22;40360;52.992;6.796;2023-01-23T12:40:43;3.80;99.90
54126;DHT22;40360;52.992;6.796;2023-01-23T12:45:47;3.70;99.90
54126;DHT22;40360;52.992;6.796;2023-01-23T12:48:29;3.70;99.90
54126;DHT22;40360;52.992;6.796;2023-01-23T12:51:05;3.70;99.90
54126;DHT22;40360;52.992;6.796;2023-01-23T12:53:36;3.70;99.90
54126;DHT22;40360;52.992;6.796;2023-01-23T12:56:19;3.90;99.90
54126;DHT22;40360;52.992;6.796;2023-01-23T12:58:59;3.80;99.90
54126;DHT22;40360;52.992;6.796;2023-01-23T13:06:56;3.80;99.90
54126;DHT22;40360;52.992;6.796;2023-01-23T13:16:55;3.80;99.90
54126;DHT22;40360;52.992;6.796;2023-01-23T13:19:32;3.80;99.90
54126;DHT22;40360;52.992;6.796;2023-01-23T13:22:28;3.80;99.90
54126;DHT22;40360;52.992;6.796;2023-01-23T13:25:12;3.80;99.90
54126;DHT22;40360;52.992;6.796;2023-01-23T13:32:58;3.80;99.90
54126;DHT22;40360;52.992;6.796;2023-01-23T13:44:00;3.80;99.90
54126;DHT22;40360;52.992;6.796;2023-01-23T13:46:53;3.80;99.90
54126;DHT22;40360;52.992;6.796;2023-01-23T13:52:29;3.80;99.90
54126;DHT22;40360;52.992;6.796;2023-01-23T13:55:26;3.80;99.90
54126;DHT22;40360;52.992;6.796;2023-01-23T13:58:19;3.80;99.90
54126;DHT22;40360;52.992;6.796;2023-01-23T14:03:41;3.80;99.90
54126;DHT22;40360;52.992;6.796;2023-01-23T14:06:37;3.80;99.90
54126;DHT22;40360;52.992;6.796;2023-01-23T14:09:16;3.90;99.90
54126;DHT22;40360;52.992;6.796;2023-01-23T14:11:42;3.90;99.90
54126;DHT22;40360;52.992;6.796;2023-01-23T14:14:10;3.90;99.90
54126;DHT22;40360;52.992;6.796;2023-01-23T14:16:55;3.90;99.90
54126;DHT22;40360;52.992;6.796;2023-01-23T14:19:26;4.00;99.90
54126;DHT22;40360;52.992;6.796;2023-01-23T14:22:19;3.90;99.90
54126;DHT22;40360;52.992;6.796;2023-01-23T14:24:46;4.00;99.90
54126;DHT22;40360;52.992;6.796;2023-01-23T14:27:29;3.90;99.90
54126;DHT22;40360;52.992;6.796;2023-01-23T14:30:15;4.00;99.90
54126;DHT22;40360;52.992;6.796;2023-01-23T14:32:42;4.00;99.90
54126;DHT22;40360;52.992;6.796;2023-01-23T14:35:24;3.90;99.90
54126;DHT22;40360;52.992;6.796;2023-01-23T14:37:52;3.90;99.90
54126;DHT22;40360;52.992;6.796;2023-01-23T14:40:20;3.90;99.90
54126;DHT22;40360;52.992;6.796;2023-01-23T14:42:57;3.90;99.90
54126;DHT22;40360;52.992;6.796;2023-01-23T14:45:23;4.00;99.90
54126;DHT22;40360;52.992;6.796;2023-01-23T14:47:49;4.00;99.90
54126;DHT22;40360;52.992;6.796;2023-01-23T14:50:17;4.00;99.90
54126;DHT22;40360;52.992;6.796;2023-01-23T14:52:44;4.00;99.90
54126;DHT22;40360;52.992;6.796;2023-01-23T14:55:21;3.90;99.90
54126;DHT22;40360;52.992;6.796;2023-01-23T14:57:49;3.90;99.90
54126;DHT22;40360;52.992;6.796;2023-01-23T15:00:16;3.90;99.90
54126;DHT22;40360;52.992;6.796;2023-01-23T15:02:44;3.90;99.90
54126;DHT22;40360;52.992;6.796;2023-01-23T15:07:59;3.90;99.90
54126;DHT22;40360;52.992;6.796;2023-01-23T15:15:31;3.80;99.90
54126;DHT22;40360;52.992;6.796;2023-01-23T15:17:59;3.80;99.90
54126;DHT22;40360;52.992;6.796;2023-01-23T15:20:38;3.80;99.90
54126;DHT22;40360;52.992;6.796;2023-01-23T15:23:21;3.80;99.90
54126;DHT22;40360;52.992;6.796;2023-01-23T15:28:46;3.80;99.90
54126;DHT22;40360;52.992;6.796;2023-01-23T15:33:50;3.80;99.90
54126;DHT22;40360;52.992;6.796;2023-01-23T15:36:29;3.70;99.90
54126;DHT22;40360;52.992;6.796;2023-01-23T15:38:56;3.70;99.90
54126;DHT22;40360;52.992;6.796;2023-01-23T15:41:44;3.70;99.90
54126;DHT22;40360;52.992;6.796;2023-01-23T15:44:12;3.70;99.90
54126;DHT22;40360;52.992;6.796;2023-01-23T15:46:38;3.70;99.90
54126;DHT22;40360;52.992;6.796;2023-01-23T15:49:04;3.60;99.90
54126;DHT22;40360;52.992;6.796;2023-01-23T15:51:29;3.60;99.90
54126;DHT22;40360;52.992;6.796;2023-01-23T15:53:56;3.60;99.90
54126;DHT22;40360;52.992;6.796;2023-01-23T15:56:26;3.60;99.90
54126;DHT22;40360;52.992;6.796;2023-01-23T15:58:53;3.60;99.90
54126;DHT22;40360;52.992;6.796;2023-01-23T16:01:18;3.60;99.90
54126;DHT22;40360;52.992;6.796;2023-01-23T16:03:44;3.60;99.90
54126;DHT22;40360;52.992;6.796;2023-01-23T16:06:17;3.50;99.90
54126;DHT22;40360;52.992;6.796;2023-01-23T16:08:43;3.50;99.90
54126;DHT22;40360;52.992;6.796;2023-01-23T16:11:09;3.50;99.90
54126;DHT22;40360;52.992;6.796;2023-01-23T16:13:35;3.50;99.90
54126;DHT22;40360;52.992;6.796;2023-01-23T16:16:00;3.50;99.90
54126;DHT22;40360;52.992;6.796;2023-01-23T16:18:26;3.50;99.90
54126;DHT22;40360;52.992;6.796;2023-01-23T16:20:51;3.50;99.90
54126;DHT22;40360;52.992;6.796;2023-01-23T16:23:20;3.50;99.90
54126;DHT22;40360;52.992;6.796;2023-01-23T16:25:46;3.40;99.90
54126;DHT22;40360;52.992;6.796;2023-01-23T16:28:14;3.40;99.90
54126;DHT22;40360;52.992;6.796;2023-01-23T16:30:40;3.40;99.90
54126;DHT22;40360;52.992;6.796;2023-01-23T16:33:06;3.40;99.90
54126;DHT22;40360;52.992;6.796;2023-01-23T16:35:32;3.40;99.90
54126;DHT22;40360;52.992;6.796;2023-01-23T16:37:58;3.40;99.90
54126;DHT22;40360;52.992;6.796;2023-01-23T16:40:26;3.40;99.90
54126;DHT22;40360;52.992;6.796;2023-01-23T16:42:52;3.40;99.90
54126;DHT22;40360;52.992;6.796;2023-01-23T16:45:25;3.40;99.90
54126;DHT22;40360;52.992;6.796;2023-01-23T16:47:51;3.40;99.90
54126;DHT22;40360;52.992;6.796;2023-01-23T16:50:20;3.40;99.90
54126;DHT22;40360;52.992;6.796;2023-01-23T16:52:55;3.30;99.90
54126;DHT22;40360;52.992;6.796;2023-01-23T16:55:26;3.40;99.90
54126;DHT22;40360;52.992;6.796;2023-01-23T16:57:57;3.40;99.90
54126;DHT22;40360;52.992;6.796;2023-01-23T17:00:23;3.40;99.90
54126;DHT22;40360;52.992;6.796;2023-01-23T17:02:52;3.30;99.90
54126;DHT22;40360;52.992;6.796;2023-01-23T17:05:19;3.40;99.90
54126;DHT22;40360;52.992;6.796;2023-01-23T17:07:45;3.30;99.90
54126;DHT22;40360;52.992;6.796;2023-01-23T17:10:16;3.30;99.90
54126;DHT22;40360;52.992;6.796;2023-01-23T17:12:47;3.30;99.90
54126;DHT22;40360;52.992;6.796;2023-01-23T17:15:23;3.30;99.90
54126;DHT22;40360;52.992;6.796;2023-01-23T17:17:50;3.30;99.90
54126;DHT22;40360;52.992;6.796;2023-01-23T17:20:17;3.30;99.90
54126;DHT22;40360;52.992;6.796;2023-01-23T17:22:43;3.30;99.90
54126;DHT22;40360;52.992;6.796;2023-01-23T17:25:23;3.30;99.90
54126;DHT22;40360;52.992;6.796;2023-01-23T17:27:49;3.30;99.90
54126;DHT22;40360;52.992;6.796;2023-01-23T17:30:18;3.30;99.90
54126;DHT22;40360;52.992;6.796;2023-01-23T17:32:47;3.30;99.90
54126;DHT22;40360;52.992;6.796;2023-01-23T17:35:27;3.30;99.90
54126;DHT22;40360;52.992;6.796;2023-01-23T17:37:55;3.30;99.90
54126;DHT22;40360;52.992;6.796;2023-01-23T17:40:22;3.30;99.90
54126;DHT22;40360;52.992;6.796;2023-01-23T17:42:48;3.30;99.90
54126;DHT22;40360;52.992;6.796;2023-01-23T17:45:16;3.30;99.90
54126;DHT22;40360;52.992;6.796;2023-01-23T17:47:45;3.30;99.90
54126;DHT22;40360;52.992;6.796;2023-01-23T17:50:25;3.30;99.90
54126;DHT22;40360;52.992;6.796;2023-01-23T17:52:53;3.30;99.90
54126;DHT22;40360;52.992;6.796;2023-01-23T17:55:22;3.20;99.90
54126;DHT22;40360;52.992;6.796;2023-01-23T17:57:49;3.30;99.90
54126;DHT22;40360;52.992;6.796;2023-01-23T18:00:17;3.20;99.90
54126;DHT22;40360;52.992;6.796;2023-01-23T18:02:44;3.20;99.90
54126;DHT22;40360;52.992;6.796;2023-01-23T18:05:11;3.20;99.90
54126;DHT22;40360;52.992;6.796;2023-01-23T18:07:38;3.20;99.90
54126;DHT22;40360;52.992;6.796;2023-01-23T18:10:04;3.20;99.90
54126;DHT22;40360;52.992;6.796;2023-01-23T18:18:21;3.30;99.90
54126;DHT22;40360;52.992;6.796;2023-01-23T18:20:50;3.20;99.90